sensor_id;sensor_type;location;lat;lon;timestamp;temperature;humidity
46123;DHT22;31856;-35.404;149.120;2023-01-15T00:01:24;25.20;48.10
46123;DHT22;31856;-35.404;149.120;2023-01-15T00:03:54;25.30;48.40
46123;DHT22;31856;-35.404;149.120;2023-01-15T00:06:25;25.30;47.40
46123;DHT22;31856;-35.404;149.120;2023-01-15T00:08:55;25.40;47.20
46123;DHT22;31856;-35.404;149.120;2023-01-15T00:11:25;25.50;47.00
46123;DHT22;31856;-35.404;149.120;2023-01-15T00:13:55;25.70;46.90
46123;DHT22;31856;-35.404;149.120;2023-01-15T00:16:24;25.70;46.90
46123;DHT22;31856;-35.404;149.120;2023-01-15T00:18:55;25.70;46.50
46123;DHT22;31856;-35.404;149.120;2023-01-15T00:21:25;25.80;47.30
46123;DHT22;31856;-35.404;149.120;2023-01-15T00:23:55;25.80;46.90
46123;DHT22;31856;-35.404;149.120;2023-01-15T00:26:43;25.80;46.50
46123;DHT22;31856;-35.404;149.120;2023-01-15T00:29:31;25.80;47.00
46123;DHT22;31856;-35.404;149.120;2023-01-15T00:32:06;25.80;46.90
46123;DHT22;31856;-35.404;149.120;2023-01-15T00:34:36;25.90;46.90
46123;DHT22;31856;-35.404;149.120;2023-01-15T00:37:05;25.80;46.80
46123;DHT22;31856;-35.404;149.120;2023-01-15T00:39:35;25.80;47.30
46123;DHT22;31856;-35.404;149.120;2023-01-15T00:42:04;25.70;47.60
46123;DHT22;31856;-35.404;149.120;2023-01-15T00:44:33;25.70;47.20
46123;DHT22;31856;-35.404;149.120;2023-01-15T00:47:03;25.70;47.30
46123;DHT22;31856;-35.404;149.120;2023-01-15T00:49:34;25.80;48.00
46123;DHT22;31856;-35.404;149.120;2023-01-15T00:52:03;25.80;48.00
46123;DHT22;31856;-35.404;149.120;2023-01-15T00:54:33;25.80;47.50
46123;DHT22;31856;-35.404;149.120;2023-01-15T00:57:02;25.90;48.50
46123;DHT22;31856;-35.404;149.120;2023-01-15T00:59:32;26.00;48.30
46123;DHT22;31856;-35.404;149.120;2023-01-15T01:02:01;26.10;48.30
46123;DHT22;31856;-35.404;149.120;2023-01-15T01:04:31;26.20;47.80
46123;DHT22;31856;-35.404;149.120;2023-01-15T01:07:02;26.20;47.40
46123;DHT22;31856;-35.404;149.120;2023-01-15T01:09:31;26.30;48.00
46123;DHT22;31856;-35.404;149.120;2023-01-15T01:12:01;26.70;48.20
46123;DHT22;31856;-35.404;149.120;2023-01-15T01:14:31;27.20;48.10
46123;DHT22;31856;-35.404;149.120;2023-01-15T01:17:00;27.80;44.90
46123;DHT22;31856;-35.404;149.120;2023-01-15T01:19:30;28.40;43.40
46123;DHT22;31856;-35.404;149.120;2023-01-15T01:21:59;28.50;43.00
46123;DHT22;31856;-35.404;149.120;2023-01-15T01:24:29;28.70;42.00
46123;DHT22;31856;-35.404;149.120;2023-01-15T01:26:59;28.80;41.20
46123;DHT22;31856;-35.404;149.120;2023-01-15T01:29:28;28.90;40.50
46123;DHT22;31856;-35.404;149.120;2023-01-15T01:31:58;29.10;40.90
46123;DHT22;31856;-35.404;149.120;2023-01-15T01:34:27;29.40;38.70
46123;DHT22;31856;-35.404;149.120;2023-01-15T01:36:57;29.70;38.40
46123;DHT22;31856;-35.404;149.120;2023-01-15T01:39:26;29.70;38.80
46123;DHT22;31856;-35.404;149.120;2023-01-15T01:41:56;29.50;38.60
46123;DHT22;31856;-35.404;149.120;2023-01-15T01:47:23;29.20;39.30
46123;DHT22;31856;-35.404;149.120;2023-01-15T01:49:53;29.10;40.10
46123;DHT22;31856;-35.404;149.120;2023-01-15T01:52:24;29.40;39.80
46123;DHT22;31856;-35.404;149.120;2023-01-15T01:54:55;29.80;39.50
46123;DHT22;31856;-35.404;149.120;2023-01-15T01:57:24;30.20;39.00
46123;DHT22;31856;-35.404;149.120;2023-01-15T01:59:54;30.60;37.80
46123;DHT22;31856;-35.404;149.120;2023-01-15T02:02:25;31.00;36.90
46123;DHT22;31856;-35.404;149.120;2023-01-15T02:04:54;31.10;36.30
46123;DHT22;31856;-35.404;149.120;2023-01-15T02:07:24;31.20;35.60
46123;DHT22;31856;-35.404;149.120;2023-01-15T02:09:54;31.50;34.70
46123;DHT22;31856;-35.404;149.120;2023-01-15T02:12:31;31.70;34.50
46123;DHT22;31856;-35.404;149.120;2023-01-15T02:23:09;32.60;35.00
46123;DHT22;31856;-35.404;149.120;2023-01-15T02:28:29;31.90;35.30
46123;DHT22;31856;-35.404;149.120;2023-01-15T02:31:11;31.90;35.70
46123;DHT22;31856;-35.404;149.120;2023-01-15T02:33:48;31.90;35.10
46123;DHT22;31856;-35.404;149.120;2023-01-15T02:36:20;31.70;35.80
46123;DHT22;31856;-35.404;149.120;2023-01-15T02:38:51;31.60;36.30
46123;DHT22;31856;-35.404;149.120;2023-01-15T02:41:23;31.50;35.70
46123;DHT22;31856;-35.404;149.120;2023-01-15T02:43:54;31.70;36.10
46123;DHT22;31856;-35.404;149.120;2023-01-15T02:46:26;31.80;35.60
46123;DHT22;31856;-35.404;149.120;2023-01-15T02:48:56;31.80;35.90
46123;DHT22;31856;-35.404;149.120;2023-01-15T02:51:27;32.00;35.40
46123;DHT22;31856;-35.404;149.120;2023-01-15T02:53:59;32.30;35.40
46123;DHT22;31856;-35.404;149.120;2023-01-15T02:56:30;32.80;35.20
46123;DHT22;31856;-35.404;149.120;2023-01-15T02:59:04;33.30;33.50
46123;DHT22;31856;-35.404;149.120;2023-01-15T03:02:18;33.50;33.40
46123;DHT22;31856;-35.404;149.120;2023-01-15T03:04:33;33.30;33.10
46123;DHT22;31856;-35.404;149.120;2023-01-15T03:07:08;32.90;33.00
46123;DHT22;31856;-35.404;149.120;2023-01-15T03:09:40;32.90;33.40
46123;DHT22;31856;-35.404;149.120;2023-01-15T04:04:09;33.50;33.30
46123;DHT22;31856;-35.404;149.120;2023-01-15T04:06:41;33.90;33.00
46123;DHT22;31856;-35.404;149.120;2023-01-15T04:09:12;34.10;32.30
46123;DHT22;31856;-35.404;149.120;2023-01-15T04:11:43;34.00;32.10
46123;DHT22;31856;-35.404;149.120;2023-01-15T04:14:13;34.20;32.30
46123;DHT22;31856;-35.404;149.120;2023-01-15T04:16:42;34.20;31.30
46123;DHT22;31856;-35.404;149.120;2023-01-15T04:19:12;33.70;31.60
46123;DHT22;31856;-35.404;149.120;2023-01-15T04:21:41;33.70;31.70
46123;DHT22;31856;-35.404;149.120;2023-01-15T04:24:11;33.40;33.00
46123;DHT22;31856;-35.404;149.120;2023-01-15T04:26:41;33.30;33.10
46123;DHT22;31856;-35.404;149.120;2023-01-15T04:29:10;33.20;33.80
46123;DHT22;31856;-35.404;149.120;2023-01-15T04:31:39;33.20;33.90
46123;DHT22;31856;-35.404;149.120;2023-01-15T04:34:09;32.90;33.00
46123;DHT22;31856;-35.404;149.120;2023-01-15T04:36:38;32.60;33.10
46123;DHT22;31856;-35.404;149.120;2023-01-15T04:39:08;32.40;33.30
46123;DHT22;31856;-35.404;149.120;2023-01-15T04:41:38;32.30;34.00
46123;DHT22;31856;-35.404;149.120;2023-01-15T04:44:25;32.20;34.20
46123;DHT22;31856;-35.404;149.120;2023-01-15T04:46:56;32.20;34.80
46123;DHT22;31856;-35.404;149.120;2023-01-15T04:49:27;32.10;33.70
46123;DHT22;31856;-35.404;149.120;2023-01-15T04:51:57;32.00;34.20
46123;DHT22;31856;-35.404;149.120;2023-01-15T04:54:26;31.80;34.20
46123;DHT22;31856;-35.404;149.120;2023-01-15T04:56:56;31.70;34.90
46123;DHT22;31856;-35.404;149.120;2023-01-15T04:59:26;31.50;37.00
46123;DHT22;31856;-35.404;149.120;2023-01-15T05:01:56;31.40;38.00
46123;DHT22;31856;-35.404;149.120;2023-01-15T06:42:24;22.70;69.00
46123;DHT22;31856;-35.404;149.120;2023-01-15T06:45:12;22.70;68.30
46123;DHT22;31856;-35.404;149.120;2023-01-15T06:48:01;22.80;66.80
46123;DHT22;31856;-35.404;149.120;2023-01-15T06:50:31;22.90;67.20
46123;DHT22;31856;-35.404;149.120;2023-01-15T06:53:00;23.00;66.50
46123;DHT22;31856;-35.404;149.120;2023-01-15T06:55:29;23.00;67.60
46123;DHT22;31856;-35.404;149.120;2023-01-15T06:58:01;22.90;68.70
46123;DHT22;31856;-35.404;149.120;2023-01-15T07:00:30;22.90;67.10
46123;DHT22;31856;-35.404;149.120;2023-01-15T07:03:00;22.80;70.10
46123;DHT22;31856;-35.404;149.120;2023-01-15T07:05:30;22.80;70.20
46123;DHT22;31856;-35.404;149.120;2023-01-15T07:08:00;22.80;69.70
46123;DHT22;31856;-35.404;149.120;2023-01-15T07:10:30;22.70;69.90
46123;DHT22;31856;-35.404;149.120;2023-01-15T07:12:59;22.60;71.60
46123;DHT22;31856;-35.404;149.120;2023-01-15T07:15:28;22.40;72.30
46123;DHT22;31856;-35.404;149.120;2023-01-15T07:17:58;22.10;72.40
46123;DHT22;31856;-35.404;149.120;2023-01-15T07:20:28;22.10;73.00
46123;DHT22;31856;-35.404;149.120;2023-01-15T07:22:59;22.10;73.70
46123;DHT22;31856;-35.404;149.120;2023-01-15T07:25:28;22.00;73.30
46123;DHT22;31856;-35.404;149.120;2023-01-15T07:27:57;22.20;73.90
46123;DHT22;31856;-35.404;149.120;2023-01-15T07:30:27;22.20;75.00
46123;DHT22;31856;-35.404;149.120;2023-01-15T07:32:56;22.20;74.70
46123;DHT22;31856;-35.404;149.120;2023-01-15T07:35:26;22.30;74.50
46123;DHT22;31856;-35.404;149.120;2023-01-15T07:37:55;22.30;74.30
46123;DHT22;31856;-35.404;149.120;2023-01-15T07:40:25;22.10;74.50
46123;DHT22;31856;-35.404;149.120;2023-01-15T07:42:55;22.20;74.70
46123;DHT22;31856;-35.404;149.120;2023-01-15T07:45:43;22.20;73.00
46123;DHT22;31856;-35.404;149.120;2023-01-15T07:48:30;22.20;72.60
46123;DHT22;31856;-35.404;149.120;2023-01-15T07:51:18;22.10;71.70
46123;DHT22;31856;-35.404;149.120;2023-01-15T07:53:47;22.10;72.10
46123;DHT22;31856;-35.404;149.120;2023-01-15T07:56:18;21.90;72.20
46123;DHT22;31856;-35.404;149.120;2023-01-15T07:58:47;21.90;71.20
46123;DHT22;31856;-35.404;149.120;2023-01-15T08:01:18;21.90;71.30
46123;DHT22;31856;-35.404;149.120;2023-01-15T08:03:49;21.80;70.90
46123;DHT22;31856;-35.404;149.120;2023-01-15T08:06:18;21.80;70.30
46123;DHT22;31856;-35.404;149.120;2023-01-15T08:08:48;21.90;71.60
46123;DHT22;31856;-35.404;149.120;2023-01-15T08:11:18;21.80;71.80
46123;DHT22;31856;-35.404;149.120;2023-01-15T08:14:07;21.80;69.60
46123;DHT22;31856;-35.404;149.120;2023-01-15T08:16:55;21.80;71.30
46123;DHT22;31856;-35.404;149.120;2023-01-15T08:19:24;21.80;71.70
46123;DHT22;31856;-35.404;149.120;2023-01-15T08:21:57;21.80;68.20
46123;DHT22;31856;-35.404;149.120;2023-01-15T08:24:30;21.80;67.20
46123;DHT22;31856;-35.404;149.120;2023-01-15T08:26:59;21.80;68.30
46123;DHT22;31856;-35.404;149.120;2023-01-15T08:29:29;21.70;69.50
46123;DHT22;31856;-35.404;149.120;2023-01-15T08:43:30;21.30;74.50
46123;DHT22;31856;-35.404;149.120;2023-01-15T08:46:02;21.30;75.10
46123;DHT22;31856;-35.404;149.120;2023-01-15T08:48:32;21.20;75.30
46123;DHT22;31856;-35.404;149.120;2023-01-15T08:51:05;21.20;75.60
46123;DHT22;31856;-35.404;149.120;2023-01-15T08:53:35;21.10;75.90
46123;DHT22;31856;-35.404;149.120;2023-01-15T08:56:08;21.20;73.80
46123;DHT22;31856;-35.404;149.120;2023-01-15T08:58:40;21.20;73.70
46123;DHT22;31856;-35.404;149.120;2023-01-15T09:01:11;21.20;73.90
46123;DHT22;31856;-35.404;149.120;2023-01-15T09:03:43;21.20;74.50
46123;DHT22;31856;-35.404;149.120;2023-01-15T09:06:12;21.30;75.60
46123;DHT22;31856;-35.404;149.120;2023-01-15T09:08:42;21.20;75.00
46123;DHT22;31856;-35.404;149.120;2023-01-15T09:11:12;21.10;75.40
46123;DHT22;31856;-35.404;149.120;2023-01-15T09:13:41;21.00;75.90
46123;DHT22;31856;-35.404;149.120;2023-01-15T09:16:11;21.10;74.70
46123;DHT22;31856;-35.404;149.120;2023-01-15T09:18:41;21.20;75.30
46123;DHT22;31856;-35.404;149.120;2023-01-15T09:21:11;21.10;75.50
46123;DHT22;31856;-35.404;149.120;2023-01-15T09:23:40;21.10;75.40
46123;DHT22;31856;-35.404;149.120;2023-01-15T09:26:24;21.10;73.00
46123;DHT22;31856;-35.404;149.120;2023-01-15T09:28:58;21.00;74.50
46123;DHT22;31856;-35.404;149.120;2023-01-15T09:31:28;20.90;76.20
46123;DHT22;31856;-35.404;149.120;2023-01-15T09:33:58;20.80;76.20
46123;DHT22;31856;-35.404;149.120;2023-01-15T09:36:29;20.90;75.90
46123;DHT22;31856;-35.404;149.120;2023-01-15T09:39:00;20.90;75.40
46123;DHT22;31856;-35.404;149.120;2023-01-15T11:45:16;20.60;76.60
46123;DHT22;31856;-35.404;149.120;2023-01-15T11:51:09;20.60;76.50
46123;DHT22;31856;-35.404;149.120;2023-01-15T11:53:52;20.60;76.60
46123;DHT22;31856;-35.404;149.120;2023-01-15T11:56:23;20.50;76.60
46123;DHT22;31856;-35.404;149.120;2023-01-15T11:58:54;20.50;76.40
46123;DHT22;31856;-35.404;149.120;2023-01-15T12:01:31;20.60;76.60
46123;DHT22;31856;-35.404;149.120;2023-01-15T12:04:04;20.50;76.90
46123;DHT22;31856;-35.404;149.120;2023-01-15T12:06:36;20.50;76.90
46123;DHT22;31856;-35.404;149.120;2023-01-15T12:12:07;20.60;76.50
46123;DHT22;31856;-35.404;149.120;2023-01-15T12:22:52;20.50;76.90
46123;DHT22;31856;-35.404;149.120;2023-01-15T12:25:36;20.50;77.20
46123;DHT22;31856;-35.404;149.120;2023-01-15T12:28:14;20.50;77.20
46123;DHT22;31856;-35.404;149.120;2023-01-15T12:31:09;20.50;77.20
46123;DHT22;31856;-35.404;149.120;2023-01-15T12:33:47;20.40;77.60
46123;DHT22;31856;-35.404;149.120;2023-01-15T12:36:19;20.40;77.80
46123;DHT22;31856;-35.404;149.120;2023-01-15T12:41:33;20.40;77.50
46123;DHT22;31856;-35.404;149.120;2023-01-15T16:24:08;19.30;78.80
46123;DHT22;31856;-35.404;149.120;2023-01-15T16:26:59;19.30;79.50
46123;DHT22;31856;-35.404;149.120;2023-01-15T16:29:30;19.30;80.10
46123;DHT22;31856;-35.404;149.120;2023-01-15T16:32:10;19.30;80.30
46123;DHT22;31856;-35.404;149.120;2023-01-15T16:34:39;19.30;80.40
46123;DHT22;31856;-35.404;149.120;2023-01-15T16:37:44;19.30;80.00
46123;DHT22;31856;-35.404;149.120;2023-01-15T16:40:06;19.30;80.00
46123;DHT22;31856;-35.404;149.120;2023-01-15T16:42:38;19.30;80.10
46123;DHT22;31856;-35.404;149.120;2023-01-15T16:45:20;19.30;80.10
46123;DHT22;31856;-35.404;149.120;2023-01-15T16:48:27;19.30;80.00
46123;DHT22;31856;-35.404;149.120;2023-01-15T16:50:51;19.30;80.20
46123;DHT22;31856;-35.404;149.120;2023-01-15T16:53:41;19.30;80.10
46123;DHT22;31856;-35.404;149.120;2023-01-15T16:56:27;19.20;80.20
46123;DHT22;31856;-35.404;149.120;2023-01-15T17:04:39;19.30;80.60
46123;DHT22;31856;-35.404;149.120;2023-01-15T17:09:43;19.30;80.40
46123;DHT22;31856;-35.404;149.120;2023-01-15T17:12:46;19.30;80.60
46123;DHT22;31856;-35.404;149.120;2023-01-15T17:15:55;19.20;81.10
46123;DHT22;31856;-35.404;149.120;2023-01-15T17:17:59;19.20;81.20
46123;DHT22;31856;-35.404;149.120;2023-01-15T17:20:47;19.20;80.80
46123;DHT22;31856;-35.404;149.120;2023-01-15T17:23:17;19.20;81.30
46123;DHT22;31856;-35.404;149.120;2023-01-15T17:25:49;19.20;81.60
46123;DHT22;31856;-35.404;149.120;2023-01-15T17:28:19;19.20;81.60
46123;DHT22;31856;-35.404;149.120;2023-01-15T17:30:52;19.20;81.50
46123;DHT22;31856;-35.404;149.120;2023-01-15T17:33:25;19.20;81.00
46123;DHT22;31856;-35.404;149.120;2023-01-15T17:35:55;19.30;81.10
46123;DHT22;31856;-35.404;149.120;2023-01-15T17:38:28;19.30;81.10
46123;DHT22;31856;-35.404;149.120;2023-01-15T17:40:57;19.20;81.20
46123;DHT22;31856;-35.404;149.120;2023-01-15T17:43:27;19.20;81.60
46123;DHT22;31856;-35.404;149.120;2023-01-15T17:45:56;19.20;81.40
46123;DHT22;31856;-35.404;149.120;2023-01-15T17:48:28;19.20;81.30
46123;DHT22;31856;-35.404;149.120;2023-01-15T17:50:58;19.20;81.60
46123;DHT22;31856;-35.404;149.120;2023-01-15T18:09:23;19.20;82.20
46123;DHT22;31856;-35.404;149.120;2023-01-15T18:11:54;19.10;82.30
46123;DHT22;31856;-35.404;149.120;2023-01-15T18:14:23;19.10;82.90
46123;DHT22;31856;-35.404;149.120;2023-01-15T18:16:53;19.10;82.90
46123;DHT22;31856;-35.404;149.120;2023-01-15T18:19:23;19.20;82.60
46123;DHT22;31856;-35.404;149.120;2023-01-15T18:21:52;19.10;82.80
46123;DHT22;31856;-35.404;149.120;2023-01-15T18:24:22;19.20;83.10
46123;DHT22;31856;-35.404;149.120;2023-01-15T18:26:52;19.20;82.90
46123;DHT22;31856;-35.404;149.120;2023-01-15T18:29:23;19.20;82.60
46123;DHT22;31856;-35.404;149.120;2023-01-15T18:31:53;19.20;82.40
46123;DHT22;31856;-35.404;149.120;2023-01-15T18:34:22;19.20;82.60
46123;DHT22;31856;-35.404;149.120;2023-01-15T18:36:52;19.20;82.80
46123;DHT22;31856;-35.404;149.120;2023-01-15T18:39:21;19.20;82.50
46123;DHT22;31856;-35.404;149.120;2023-01-15T18:41:51;19.20;82.50
46123;DHT22;31856;-35.404;149.120;2023-01-15T18:44:21;19.20;82.40
46123;DHT22;31856;-35.404;149.120;2023-01-15T18:47:10;19.20;82.70
46123;DHT22;31856;-35.404;149.120;2023-01-15T18:49:40;19.20;82.90
46123;DHT22;31856;-35.404;149.120;2023-01-15T18:52:11;19.20;82.90
46123;DHT22;31856;-35.404;149.120;2023-01-15T18:54:59;19.20;82.80
46123;DHT22;31856;-35.404;149.120;2023-01-15T18:57:30;19.30;82.90
46123;DHT22;31856;-35.404;149.120;2023-01-15T19:00:00;19.20;83.10
46123;DHT22;31856;-35.404;149.120;2023-01-15T19:02:30;19.20;83.10
46123;DHT22;31856;-35.404;149.120;2023-01-15T19:04:59;19.20;82.80
46123;DHT22;31856;-35.404;149.120;2023-01-15T19:07:29;19.30;82.70
